createdAt,value
2018-10-21T00:00:42.556Z,17.25
2018-10-21T00:03:10.992Z,16.07
2018-10-21T00:05:39.260Z,16.17
2018-10-21T00:08:07.769Z,16.27
2018-10-21T00:10:36.008Z,16.07
2018-10-21T00:13:04.343Z,15.98
2018-10-21T00:15:32.808Z,16.17
2018-10-21T00:18:00.973Z,16.10
2018-10-21T00:20:29.318Z,16.85
2018-10-21T00:22:57.707Z,17.25
2018-10-21T00:25:26.000Z,17.62
2018-10-21T00:27:54.235Z,16.35
2018-10-21T00:30:22.565Z,19.65
2018-10-21T00:32:51.683Z,18.87
2018-10-21T00:35:19.969Z,18.73
2018-10-21T00:37:48.370Z,19.70
2018-10-21T00:40:16.681Z,20.00
2018-10-21T00:42:44.965Z,20.08
2018-10-21T00:45:13.323Z,19.27
2018-10-21T00:47:42.152Z,19.98
2018-10-21T00:50:11.080Z,19.05
2018-10-21T00:52:39.419Z,18.65
2018-10-21T00:55:08.531Z,18.35
2018-10-21T00:57:37.144Z,18.95
2018-10-21T01:00:07.615Z,18.02
2018-10-21T01:02:37.764Z,18.80
2018-10-21T01:05:06.789Z,19.02
2018-10-21T01:07:35.817Z,18.50
2018-10-21T01:10:04.503Z,18.27
2018-10-21T01:12:32.780Z,17.65
2018-10-21T01:15:01.123Z,18.80
2018-10-21T01:17:29.366Z,18.45
2018-10-21T01:19:57.662Z,17.80
2018-10-21T01:22:25.983Z,19.75
2018-10-21T01:24:54.245Z,17.27
2018-10-21T01:27:22.507Z,18.73
2018-10-21T01:29:50.728Z,17.67
2018-10-21T01:32:19.011Z,17.32
2018-10-21T01:34:47.323Z,17.55
2018-10-21T01:37:15.895Z,18.52
2018-10-21T01:40:54.435Z,19.48
2018-10-21T01:43:30.434Z,17.42
2018-10-21T01:45:59.207Z,17.02
2018-10-21T01:48:28.612Z,18.23
2018-10-21T01:50:56.961Z,16.67
2018-10-21T01:53:25.480Z,18.57
2018-10-21T01:55:53.787Z,18.25
2018-10-21T01:58:22.103Z,19.15
2018-10-21T02:00:50.379Z,17.75
2018-10-21T02:03:18.927Z,19.92
2018-10-21T02:05:47.820Z,18.65
2018-10-21T02:08:16.590Z,20.80
2018-10-21T02:10:44.865Z,19.57
2018-10-21T02:13:13.151Z,19.37
2018-10-21T02:15:41.397Z,18.02
2018-10-21T02:18:09.711Z,18.12
2018-10-21T02:20:38.019Z,19.10
2018-10-21T02:23:06.340Z,18.17
2018-10-21T02:25:34.610Z,19.45
2018-10-21T02:28:02.884Z,18.35
2018-10-21T02:30:31.671Z,17.98
2018-10-21T02:33:00.992Z,18.27
2018-10-21T02:35:29.243Z,16.93
2018-10-21T02:37:58.268Z,17.82
2018-10-21T02:41:42.811Z,18.15
2018-10-21T02:44:12.408Z,17.48
2018-10-21T02:46:40.970Z,17.98
2018-10-21T02:49:09.991Z,18.98
2018-10-21T02:51:38.323Z,18.35
2018-10-21T02:54:07.062Z,18.57
2018-10-21T02:56:35.367Z,19.95
2018-10-21T02:59:03.663Z,19.07
2018-10-21T03:01:31.922Z,19.45
2018-10-21T03:04:00.240Z,18.82
2018-10-21T03:06:28.678Z,20.30
2018-10-21T03:08:57.015Z,18.75
2018-10-21T03:11:25.304Z,20.72
2018-10-21T03:13:53.625Z,19.05
2018-10-21T03:16:22.003Z,19.42
2018-10-21T03:18:50.272Z,18.05
2018-10-21T03:21:18.666Z,19.95
2018-10-21T03:23:46.807Z,19.60
2018-10-21T03:26:15.152Z,18.00
2018-10-21T03:28:43.424Z,19.20
2018-10-21T03:31:11.688Z,19.57
2018-10-21T03:33:40.158Z,19.32
2018-10-21T03:36:08.236Z,18.37
2018-10-21T03:38:36.476Z,19.23
2018-10-21T03:41:04.779Z,18.80
2018-10-21T03:43:33.091Z,19.50
2018-10-21T03:46:01.551Z,20.37
2018-10-21T03:48:29.800Z,18.27
2018-10-21T03:50:58.097Z,18.70
2018-10-21T03:53:26.390Z,18.57
2018-10-21T03:55:54.675Z,18.92
2018-10-21T03:58:22.950Z,17.37
2018-10-21T04:00:51.292Z,17.85
2018-10-21T04:03:19.536Z,18.65
2018-10-21T04:05:47.854Z,19.30
2018-10-21T04:08:16.105Z,18.80
2018-10-21T04:10:44.419Z,18.42
2018-10-21T04:13:12.674Z,17.70
2018-10-21T04:15:41.036Z,18.90
2018-10-21T04:18:09.390Z,17.55
2018-10-21T04:20:37.764Z,17.48
2018-10-21T04:23:06.150Z,16.87
2018-10-21T04:25:35.519Z,18.45
2018-10-21T04:28:04.319Z,17.85
2018-10-21T04:30:34.407Z,17.92
2018-10-21T04:33:11.929Z,18.07
2018-10-21T04:35:40.255Z,16.62
2018-10-21T04:38:26.937Z,17.55
2018-10-21T04:40:55.205Z,18.40
2018-10-21T04:43:23.469Z,18.25
2018-10-21T04:45:51.770Z,18.60
2018-10-21T04:48:20.100Z,16.75
2018-10-21T04:50:48.427Z,16.75
2018-10-21T04:53:16.724Z,15.88
2018-10-21T04:55:46.117Z,17.45
2018-10-21T04:58:14.549Z,16.57
2018-10-21T05:00:42.975Z,18.10
2018-10-21T05:03:11.203Z,16.12
2018-10-21T05:05:39.456Z,17.57
2018-10-21T05:08:07.791Z,16.67
2018-10-21T05:10:37.071Z,17.35
2018-10-21T05:13:06.164Z,17.25
2018-10-21T05:15:35.642Z,17.50
2018-10-21T05:18:03.943Z,16.82
2018-10-21T05:20:32.245Z,16.07
2018-10-21T05:23:00.555Z,15.93
2018-10-21T05:25:28.842Z,17.75
2018-10-21T05:27:57.084Z,16.42
2018-10-21T05:30:25.407Z,16.85
2018-10-21T05:32:53.722Z,17.20
2018-10-21T05:35:22.191Z,17.73
2018-10-21T05:37:50.535Z,17.52
2018-10-21T05:40:20.120Z,18.20
2018-10-21T05:42:48.663Z,18.65
2018-10-21T05:45:16.952Z,18.27
2018-10-21T05:47:45.220Z,17.70
2018-10-21T05:50:14.471Z,18.00
2018-10-21T05:52:43.195Z,18.20
2018-10-21T05:55:12.259Z,17.52
2018-10-21T05:57:40.701Z,17.52
2018-10-21T06:00:12.228Z,17.12
2018-10-21T06:02:40.512Z,16.27
2018-10-21T06:05:20.332Z,16.52
2018-10-21T06:07:48.616Z,17.07
2018-10-21T06:10:16.915Z,16.60
2018-10-21T06:12:45.213Z,16.52
2018-10-21T06:15:13.617Z,16.90
2018-10-21T06:17:41.941Z,17.02
2018-10-21T06:20:15.433Z,15.85
2018-10-21T06:22:45.535Z,15.98
2018-10-21T06:25:13.831Z,16.00
2018-10-21T06:27:42.128Z,16.62
2018-10-21T06:30:11.817Z,17.12
2018-10-21T06:32:40.136Z,16.90
2018-10-21T06:35:09.266Z,16.55
2018-10-21T06:37:37.655Z,17.23
2018-10-21T06:40:07.485Z,15.90
2018-10-21T06:42:35.732Z,16.80
2018-10-21T06:45:04.118Z,16.40
2018-10-21T06:47:32.565Z,16.57
2018-10-21T06:50:01.000Z,16.17
2018-10-21T06:52:29.279Z,16.57
2018-10-21T06:54:57.598Z,16.57
2018-10-21T06:57:26.053Z,16.80
2018-10-21T06:59:54.261Z,17.52
2018-10-21T07:02:22.540Z,16.52
2018-10-21T07:04:50.865Z,16.97
2018-10-21T07:07:19.100Z,17.77
2018-10-21T07:09:47.354Z,16.90
2018-10-21T07:12:15.587Z,16.52
2018-10-21T07:14:43.961Z,15.98
2018-10-21T07:17:12.223Z,16.15
2018-10-21T07:19:40.528Z,13.83
2018-10-21T07:22:08.923Z,15.03
2018-10-21T07:24:37.237Z,15.48
2018-10-21T07:27:05.684Z,15.80
2018-10-21T07:29:33.945Z,15.58
2018-10-21T07:32:02.240Z,15.63
2018-10-21T07:34:30.519Z,15.40
2018-10-21T07:36:58.824Z,16.00
2018-10-21T07:39:27.097Z,16.23
2018-10-21T07:41:55.504Z,15.85
2018-10-21T07:44:23.783Z,16.02
2018-10-21T07:46:52.107Z,16.57
2018-10-21T07:49:20.471Z,16.95
2018-10-21T07:51:48.792Z,16.23
2018-10-21T07:54:17.136Z,15.15
2018-10-21T07:56:45.398Z,15.72
2018-10-21T07:59:13.733Z,17.07
2018-10-21T08:01:42.115Z,17.60
2018-10-21T08:04:10.465Z,16.57
2018-10-21T08:06:50.097Z,16.65
2018-10-21T08:09:18.385Z,17.12
2018-10-21T08:11:47.092Z,18.02
2018-10-21T08:14:16.149Z,17.95
2018-10-21T08:16:45.548Z,16.75
2018-10-21T08:19:13.903Z,18.10
2018-10-21T08:21:42.155Z,17.23
2018-10-21T08:24:10.439Z,17.27
2018-10-21T08:26:38.718Z,17.37
2018-10-21T08:29:06.980Z,17.52
2018-10-21T08:31:35.312Z,17.95
2018-10-21T08:34:03.636Z,17.57
2018-10-21T08:36:31.909Z,17.75
2018-10-21T08:39:02.814Z,17.32
2018-10-21T08:45:22.199Z,17.60
2018-10-21T08:47:50.877Z,18.10
2018-10-21T08:50:19.722Z,18.82
2018-10-21T08:52:52.332Z,18.57
2018-10-21T08:55:56.602Z,17.80
2018-10-21T08:58:29.443Z,18.12
2018-10-21T09:00:58.772Z,18.32
2018-10-21T09:03:33.981Z,20.32
2018-10-21T09:06:02.348Z,19.90
2018-10-21T09:08:30.722Z,34.53
2018-10-21T09:10:59.635Z,21.50
2018-10-21T09:13:49.782Z,24.95
2018-10-21T09:16:18.225Z,52.20
2018-10-21T09:18:46.427Z,29.35
2018-10-21T09:21:14.774Z,22.73
2018-10-21T09:23:43.480Z,26.07
2018-10-21T09:26:11.756Z,24.70
2018-10-21T09:28:40.037Z,21.80
2018-10-21T09:31:14.642Z,29.35
2018-10-21T09:33:42.855Z,24.20
2018-10-21T09:36:11.163Z,23.05
2018-10-21T09:38:52.236Z,24.60
2018-10-21T09:41:27.360Z,23.95
2018-10-21T09:55:59.338Z,30.77
2018-10-21T09:58:31.060Z,25.23
2018-10-21T10:01:10.312Z,24.47
2018-10-21T10:03:53.922Z,24.55
2018-10-21T10:06:39.928Z,21.75
2018-10-21T10:09:18.391Z,23.02
2018-10-21T10:12:08.128Z,23.67
2018-10-21T10:28:10.872Z,19.52
2018-10-21T10:30:39.370Z,24.23
2018-10-21T10:33:07.865Z,20.32
2018-10-21T10:35:36.625Z,18.77
2018-10-21T10:38:05.736Z,18.45
2018-10-21T10:40:34.019Z,20.30
2018-10-21T10:43:02.772Z,20.15
2018-10-21T10:45:31.159Z,18.35
2018-10-21T10:47:59.607Z,18.37
2018-10-21T10:50:28.212Z,17.90
2018-10-21T10:52:56.540Z,17.77
2018-10-21T10:55:30.067Z,20.75
2018-10-21T10:57:58.569Z,15.58
2018-10-21T11:00:26.918Z,19.17
2018-10-21T11:02:55.240Z,18.15
2018-10-21T11:05:23.559Z,16.07
2018-10-21T11:07:51.879Z,21.52
2018-10-21T11:10:20.286Z,17.10
2018-10-21T11:12:48.636Z,15.28
2018-10-21T11:15:17.118Z,14.63
2018-10-21T11:17:45.976Z,14.50
2018-10-21T11:20:14.478Z,14.10
2018-10-21T11:22:43.097Z,13.30
2018-10-21T11:25:11.566Z,13.48
2018-10-21T11:27:49.635Z,11.80
2018-10-21T11:30:18.728Z,13.48
2018-10-21T11:32:47.496Z,12.95
2018-10-21T11:35:15.945Z,11.50
2018-10-21T11:37:44.614Z,11.30
2018-10-21T11:40:13.119Z,12.35
2018-10-21T11:42:42.312Z,11.57
2018-10-21T11:45:10.857Z,12.15
2018-10-21T11:47:39.931Z,11.68
2018-10-21T11:50:08.452Z,11.03
2018-10-21T11:52:36.849Z,11.15
2018-10-21T11:55:06.969Z,11.12
2018-10-21T11:57:35.328Z,9.78
2018-10-21T12:00:03.736Z,11.05
2018-10-21T12:02:32.497Z,11.35
2018-10-21T12:05:00.868Z,11.30
2018-10-21T12:07:29.288Z,12.03
2018-10-21T12:10:21.624Z,11.97
2018-10-21T12:19:10.431Z,10.85
2018-10-21T12:24:40.947Z,11.00
2018-10-21T12:27:25.798Z,10.48
2018-10-21T12:29:55.296Z,10.50
2018-10-21T12:36:59.407Z,8.65
2018-10-21T12:39:37.522Z,8.23
2018-10-21T12:42:30.366Z,9.28
2018-10-21T12:45:09.867Z,8.35
2018-10-21T12:47:47.905Z,8.85
2018-10-21T12:50:23.883Z,7.58
2018-10-21T12:52:52.958Z,8.13
2018-10-21T12:55:21.725Z,9.33
2018-10-21T12:57:54.909Z,8.03
2018-10-21T13:00:41.952Z,7.87
2018-10-21T13:03:10.248Z,8.38
2018-10-21T13:05:38.703Z,7.83
2018-10-21T13:08:18.493Z,5.92
2018-10-21T13:10:53.214Z,6.30
2018-10-21T13:13:21.549Z,4.28
2018-10-21T13:15:49.782Z,4.33
2018-10-21T13:18:18.110Z,6.05
2018-10-21T13:20:46.401Z,5.42
2018-10-21T13:23:14.783Z,6.00
2018-10-21T13:25:43.075Z,5.75
2018-10-21T13:28:11.477Z,6.80
2018-10-21T13:30:39.751Z,6.25
2018-10-21T13:33:08.223Z,5.90
2018-10-21T13:35:36.520Z,5.75
2018-10-21T13:38:04.950Z,5.28
2018-10-21T13:40:33.557Z,6.53
2018-10-21T13:43:01.903Z,6.03
2018-10-21T13:45:36.931Z,5.65
2018-10-21T13:48:05.468Z,5.87
2018-10-21T13:50:33.772Z,5.05
2018-10-21T13:53:02.091Z,5.50
2018-10-21T13:55:31.170Z,38.25
2018-10-21T13:57:59.439Z,49.30
2018-10-21T14:00:27.753Z,50.30
2018-10-21T14:02:56.092Z,46.37
2018-10-21T14:05:24.351Z,27.82
2018-10-21T14:07:52.631Z,9.23
2018-10-21T14:10:20.914Z,5.05
2018-10-21T14:12:49.162Z,4.85
2018-10-21T14:15:17.540Z,5.62
2018-10-21T14:17:46.420Z,14.00
2018-10-21T14:20:14.823Z,4.90
2018-10-21T14:22:43.193Z,4.20
2018-10-21T14:25:11.698Z,7.10
2018-10-21T14:27:39.814Z,5.40
2018-10-21T14:30:09.359Z,5.92
2018-10-21T14:32:37.951Z,8.33
2018-10-21T14:35:08.576Z,5.22
2018-10-21T14:37:37.420Z,6.25
2018-10-21T14:40:07.500Z,6.67
2018-10-21T14:42:35.728Z,7.05
2018-10-21T14:45:04.054Z,5.08
2018-10-21T14:47:32.336Z,5.05
2018-10-21T14:50:00.578Z,7.35
2018-10-21T14:52:28.858Z,5.75
2018-10-21T14:54:57.164Z,6.30
2018-10-21T14:57:25.448Z,5.72
2018-10-21T14:59:53.855Z,6.60
2018-10-21T15:02:22.259Z,7.40
2018-10-21T15:04:51.411Z,12.50
2018-10-21T15:07:19.745Z,11.73
2018-10-21T15:09:48.687Z,35.10
2018-10-21T15:12:17.070Z,16.32
2018-10-21T15:14:45.184Z,11.65
2018-10-21T15:17:13.469Z,9.15
2018-10-21T15:19:41.753Z,5.85
2018-10-21T15:22:10.011Z,8.20
2018-10-21T15:24:38.283Z,6.47
2018-10-21T15:27:06.554Z,7.45
2018-10-21T15:29:35.191Z,7.62
2018-10-21T15:32:03.491Z,7.97
2018-10-21T15:34:31.829Z,8.53
2018-10-21T15:37:00.275Z,6.67
2018-10-21T15:39:28.661Z,6.78
2018-10-21T15:41:56.976Z,7.85
2018-10-21T15:44:25.846Z,7.72
2018-10-21T15:46:54.167Z,6.45
2018-10-21T15:49:22.459Z,7.22
2018-10-21T15:51:50.873Z,9.08
2018-10-21T15:54:19.936Z,7.72
2018-10-21T15:56:48.204Z,7.20
2018-10-21T15:59:16.487Z,6.83
2018-10-21T16:01:44.822Z,8.73
2018-10-21T16:04:13.362Z,7.67
2018-10-21T16:06:41.540Z,7.42
2018-10-21T16:09:11.907Z,7.37
2018-10-21T16:11:40.324Z,6.58
2018-10-21T16:14:08.841Z,5.80
2018-10-21T16:16:37.206Z,6.53
2018-10-21T16:19:05.652Z,6.67
2018-10-21T16:21:34.237Z,7.10
2018-10-21T16:24:02.704Z,7.00
2018-10-21T16:26:31.042Z,6.95
2018-10-21T16:28:59.404Z,6.62
2018-10-21T16:31:28.080Z,7.78
2018-10-21T16:33:56.505Z,7.80
2018-10-21T16:36:24.723Z,7.55
2018-10-21T16:38:53.024Z,7.00
2018-10-21T16:41:25.692Z,7.67
2018-10-21T16:43:53.962Z,6.80
2018-10-21T16:46:22.372Z,7.67
2018-10-21T16:48:50.800Z,7.50
2018-10-21T16:51:19.193Z,8.00
2018-10-21T16:53:47.655Z,7.87
2018-10-21T16:56:16.037Z,7.40
2018-10-21T16:58:45.682Z,8.23
2018-10-21T17:01:14.058Z,8.25
2018-10-21T17:03:42.528Z,11.18
2018-10-21T17:06:10.919Z,10.48
2018-10-21T17:08:39.430Z,13.10
2018-10-21T17:11:07.838Z,30.17
2018-10-21T17:13:36.084Z,16.30
2018-10-21T17:16:06.200Z,16.20
2018-10-21T17:18:34.463Z,22.32
2018-10-21T17:21:02.791Z,17.98
2018-10-21T17:23:31.072Z,21.68
2018-10-21T17:25:59.381Z,19.70
2018-10-21T17:28:27.684Z,18.48
2018-10-21T17:30:59.029Z,16.87
2018-10-21T17:33:27.343Z,14.18
2018-10-21T17:35:55.645Z,14.50
2018-10-21T17:38:23.946Z,13.45
2018-10-21T17:40:52.270Z,13.08
2018-10-21T17:43:20.602Z,12.90
2018-10-21T17:45:48.887Z,13.40
2018-10-21T17:48:17.324Z,12.20
2018-10-21T17:50:45.667Z,13.15
2018-10-21T17:53:13.965Z,12.68
2018-10-21T17:55:42.282Z,11.60
2018-10-21T17:58:10.649Z,11.65
2018-10-21T18:00:38.890Z,11.15
2018-10-21T18:03:07.199Z,12.37
2018-10-21T18:05:35.481Z,12.30
2018-10-21T18:08:03.771Z,13.40
2018-10-21T18:10:32.167Z,11.90
2018-10-21T18:13:00.480Z,13.40
2018-10-21T18:15:28.763Z,13.05
2018-10-21T18:17:57.110Z,14.87
2018-10-21T18:20:25.548Z,13.58
2018-10-21T18:22:53.964Z,14.80
2018-10-21T18:25:22.398Z,13.88
2018-10-21T18:27:50.706Z,14.15
2018-10-21T18:30:19.011Z,14.95
2018-10-21T18:32:47.279Z,13.83
2018-10-21T18:35:16.260Z,16.45
2018-10-21T18:37:44.548Z,14.35
2018-10-21T18:40:13.023Z,15.30
2018-10-21T18:42:41.692Z,15.95
2018-10-21T18:45:11.913Z,15.25
2018-10-21T18:47:40.409Z,16.82
2018-10-21T18:50:10.489Z,18.48
2018-10-21T18:52:38.807Z,17.37
2018-10-21T18:55:07.390Z,19.55
2018-10-21T18:57:35.663Z,20.00
2018-10-21T19:00:04.271Z,18.00
2018-10-21T19:02:32.536Z,18.77
2018-10-21T19:05:00.887Z,19.32
2018-10-21T19:07:29.224Z,17.25
2018-10-21T19:09:58.192Z,17.23
2018-10-21T19:12:26.471Z,17.70
2018-10-21T19:14:54.769Z,16.42
2018-10-21T19:17:23.036Z,15.95
2018-10-21T19:19:51.298Z,16.17
2018-10-21T19:22:19.708Z,14.35
2018-10-21T19:24:48.050Z,14.47
2018-10-21T19:27:16.332Z,16.40
2018-10-21T19:29:44.647Z,17.65
2018-10-21T19:32:12.887Z,16.15
2018-10-21T19:34:41.139Z,16.02
2018-10-21T19:37:09.431Z,14.95
2018-10-21T19:39:37.711Z,15.63
2018-10-21T19:42:12.664Z,14.87
2018-10-21T19:44:40.928Z,16.35
2018-10-21T19:47:09.229Z,15.20
2018-10-21T19:49:37.621Z,14.30
2018-10-21T19:52:06.170Z,14.50
2018-10-21T19:54:34.528Z,15.10
2018-10-21T19:57:02.772Z,15.08
2018-10-21T19:59:31.047Z,15.50
2018-10-21T20:01:59.322Z,14.98
2018-10-21T20:04:27.632Z,15.70
2018-10-21T20:06:56.104Z,13.75
2018-10-21T20:09:24.408Z,15.23
2018-10-21T20:11:52.675Z,15.00
2018-10-21T20:14:20.915Z,16.05
2018-10-21T20:16:49.138Z,15.13
2018-10-21T20:19:17.481Z,16.00
2018-10-21T20:21:45.703Z,15.10
2018-10-21T20:24:14.252Z,16.15
2018-10-21T20:29:23.181Z,16.90
2018-10-21T20:31:51.520Z,14.98
2018-10-21T20:34:19.947Z,16.62
2018-10-21T20:36:48.235Z,14.85
2018-10-21T20:39:16.847Z,15.28
2018-10-21T20:41:45.428Z,14.50
2018-10-21T20:44:14.564Z,14.53
2018-10-21T20:46:42.986Z,13.72
2018-10-21T20:49:11.319Z,14.65
2018-10-21T20:51:39.871Z,14.07
2018-10-21T20:54:08.134Z,14.00
2018-10-21T20:56:36.387Z,13.53
2018-10-21T20:59:04.686Z,14.40
2018-10-21T21:01:39.600Z,13.05
2018-10-21T21:04:07.919Z,13.80
2018-10-21T21:06:36.376Z,13.58
2018-10-21T21:09:07.443Z,13.03
2018-10-21T21:11:35.762Z,14.10
2018-10-21T21:14:04.143Z,14.33
2018-10-21T21:16:32.359Z,13.70
2018-10-21T21:19:00.611Z,13.95
2018-10-21T21:21:28.910Z,13.55
2018-10-21T21:23:57.175Z,13.08
2018-10-21T21:26:25.412Z,13.38
2018-10-21T21:28:53.775Z,13.20
2018-10-21T21:31:23.157Z,13.43
2018-10-21T21:33:51.750Z,12.65
2018-10-21T21:36:20.107Z,12.85
2018-10-21T21:38:48.375Z,13.35
2018-10-21T21:41:16.672Z,13.15
2018-10-21T21:43:44.972Z,12.78
2018-10-21T21:46:13.315Z,13.35
2018-10-21T21:48:41.588Z,12.45
2018-10-21T21:51:09.892Z,13.08
2018-10-21T21:53:38.175Z,12.88
2018-10-21T21:56:06.491Z,12.75
2018-10-21T21:58:34.805Z,11.73
2018-10-21T22:01:04.027Z,11.53
2018-10-21T22:03:32.378Z,11.83
2018-10-21T22:06:00.840Z,11.57
2018-10-21T22:08:29.353Z,12.53
2018-10-21T22:10:57.691Z,10.65
2018-10-21T22:13:25.971Z,11.93
2018-10-21T22:15:54.282Z,11.97
2018-10-21T22:18:22.573Z,12.30
2018-10-21T22:20:50.952Z,12.43
2018-10-21T22:23:19.227Z,12.80
2018-10-21T22:25:47.599Z,11.80
2018-10-21T22:28:15.982Z,12.13
2018-10-21T22:30:44.239Z,11.53
2018-10-21T22:33:12.503Z,11.63
2018-10-21T22:35:40.755Z,12.55
2018-10-21T22:38:09.110Z,10.45
2018-10-21T22:40:37.356Z,11.43
2018-10-21T22:43:05.798Z,12.05
2018-10-21T22:45:34.103Z,11.35
2018-10-21T22:48:02.539Z,11.80
2018-10-21T22:50:30.760Z,11.55
2018-10-21T22:52:59.067Z,9.95
2018-10-21T22:55:27.330Z,10.15
2018-10-21T22:57:55.641Z,10.75
2018-10-21T23:00:23.966Z,10.55
2018-10-21T23:02:52.695Z,11.55
2018-10-21T23:05:21.409Z,11.45
2018-10-21T23:07:49.705Z,10.58
2018-10-21T23:10:18.419Z,11.63
2018-10-21T23:12:46.698Z,10.70
2018-10-21T23:15:14.986Z,11.15
2018-10-21T23:17:43.269Z,11.50
2018-10-21T23:20:11.563Z,10.95
2018-10-21T23:22:40.094Z,10.43
2018-10-21T23:25:08.443Z,10.48
2018-10-21T23:27:36.724Z,10.58
2018-10-21T23:30:05.918Z,10.68
2018-10-21T23:32:34.149Z,11.33
2018-10-21T23:35:02.479Z,12.18
2018-10-21T23:37:30.759Z,10.85
2018-10-21T23:39:59.189Z,11.33
2018-10-21T23:42:27.491Z,10.70
2018-10-21T23:44:55.841Z,10.88
2018-10-21T23:47:24.099Z,11.05
2018-10-21T23:49:52.422Z,10.45
2018-10-21T23:52:20.843Z,11.28
2018-10-21T23:54:49.001Z,11.68
2018-10-21T23:57:17.287Z,10.80
2018-10-21T23:59:45.640Z,10.88
